createdAt,value
2018-09-23T00:02:17.237Z,18.20
2018-09-23T00:04:48.577Z,18.20
2018-09-23T00:07:18.978Z,18.20
2018-09-23T00:09:49.387Z,18.20
2018-09-23T00:12:19.789Z,18.30
2018-09-23T00:15:08.527Z,18.20
2018-09-23T00:17:40.955Z,18.20
2018-09-23T00:20:11.348Z,18.30
2018-09-23T00:22:41.770Z,18.30
2018-09-23T00:25:31.535Z,18.20
2018-09-23T00:28:02.905Z,18.30
2018-09-23T00:30:33.318Z,18.20
2018-09-23T00:33:03.687Z,18.30
2018-09-23T00:35:34.112Z,18.30
2018-09-23T00:38:04.502Z,18.30
2018-09-23T00:40:42.186Z,18.30
2018-09-23T00:43:12.558Z,18.30
2018-09-23T00:45:43.572Z,18.30
2018-09-23T00:48:14.044Z,18.30
2018-09-23T00:50:45.129Z,18.30
2018-09-23T00:53:19.646Z,18.30
2018-09-23T00:55:51.071Z,18.30
2018-09-23T00:58:22.217Z,18.30
2018-09-23T01:00:52.633Z,18.30
2018-09-23T01:03:23.719Z,18.20
2018-09-23T01:05:54.032Z,18.20
2018-09-23T01:08:24.457Z,18.20
2018-09-23T01:10:54.864Z,18.20
2018-09-23T01:13:25.269Z,18.20
2018-09-23T01:15:55.696Z,18.20
2018-09-23T01:18:26.018Z,18.10
2018-09-23T01:20:56.414Z,18.20
2018-09-23T01:23:26.827Z,18.20
2018-09-23T01:25:59.260Z,18.20
2018-09-23T01:28:30.405Z,18.10
2018-09-23T01:31:00.816Z,18.20
2018-09-23T01:33:31.209Z,18.20
2018-09-23T01:36:08.942Z,18.20
2018-09-23T01:38:39.340Z,18.20
2018-09-23T01:41:09.710Z,18.20
2018-09-23T01:43:40.818Z,18.20
2018-09-23T01:46:11.209Z,18.20
2018-09-23T01:48:41.610Z,18.20
2018-09-23T01:51:12.739Z,18.20
2018-09-23T01:53:43.132Z,18.20
2018-09-23T01:56:14.543Z,18.20
2018-09-23T01:58:44.950Z,18.20
2018-09-23T02:01:16.098Z,18.30
2018-09-23T02:03:47.243Z,18.30
2018-09-23T02:06:17.667Z,18.30
2018-09-23T02:08:49.855Z,18.20
2018-09-23T02:11:20.232Z,18.20
2018-09-23T02:13:50.651Z,18.20
2018-09-23T02:16:23.080Z,18.20
2018-09-23T02:18:53.400Z,18.30
2018-09-23T02:21:24.597Z,18.30
2018-09-23T02:24:15.377Z,18.30
2018-09-23T02:26:45.797Z,18.30
2018-09-23T02:29:16.121Z,18.30
2018-09-23T02:31:46.525Z,18.30
2018-09-23T02:34:16.926Z,18.30
2018-09-23T02:36:47.308Z,18.30
2018-09-23T02:39:17.708Z,18.30
2018-09-23T02:41:48.880Z,18.30
2018-09-23T02:44:19.277Z,18.30
2018-09-23T02:46:49.858Z,18.30
2018-09-23T02:49:20.272Z,18.30
2018-09-23T02:51:52.690Z,18.30
2018-09-23T02:54:25.309Z,18.30
2018-09-23T02:56:55.654Z,18.30
2018-09-23T02:59:30.122Z,18.30
2018-09-23T03:02:01.276Z,18.30
2018-09-23T03:04:32.451Z,18.30
2018-09-23T03:07:02.862Z,18.30
2018-09-23T03:09:33.246Z,18.30
2018-09-23T03:12:03.610Z,18.30
2018-09-23T03:14:34.769Z,18.30
2018-09-23T03:17:05.186Z,18.30
2018-09-23T03:19:35.607Z,18.30
2018-09-23T03:22:05.988Z,18.30
2018-09-23T03:24:41.488Z,18.30
2018-09-23T03:27:11.909Z,18.30
2018-09-23T03:29:42.293Z,18.30
2018-09-23T03:32:12.855Z,18.30
2018-09-23T03:34:44.041Z,18.30
2018-09-23T03:37:14.626Z,18.40
2018-09-23T03:42:31.601Z,18.40
2018-09-23T03:45:02.004Z,18.40
2018-09-23T03:47:33.159Z,18.40
2018-09-23T03:50:03.613Z,18.30
2018-09-23T03:52:33.987Z,18.40
2018-09-23T03:55:04.373Z,18.40
2018-09-23T03:57:40.912Z,18.40
2018-09-23T04:00:11.324Z,18.40
2018-09-23T04:02:42.483Z,18.40
2018-09-23T04:05:12.897Z,18.40
2018-09-23T04:07:47.323Z,18.40
2018-09-23T04:10:17.746Z,18.40
2018-09-23T04:12:48.906Z,18.40
2018-09-23T04:15:19.478Z,18.40
2018-09-23T04:17:49.893Z,18.40
2018-09-23T04:20:20.293Z,18.40
2018-09-23T04:22:50.613Z,18.40
2018-09-23T04:25:21.014Z,18.40
2018-09-23T04:27:52.169Z,18.40
2018-09-23T04:30:23.326Z,18.40
2018-09-23T04:32:53.745Z,18.40
2018-09-23T04:35:24.887Z,18.40
2018-09-23T04:37:56.058Z,18.50
2018-09-23T04:40:26.468Z,18.50
2018-09-23T04:42:56.874Z,18.50
2018-09-23T04:45:27.267Z,18.50
2018-09-23T04:47:57.687Z,18.50
2018-09-23T04:50:28.076Z,18.50
2018-09-23T04:52:58.452Z,18.50
2018-09-23T04:55:29.013Z,18.50
2018-09-23T04:58:00.241Z,18.50
2018-09-23T05:00:30.492Z,18.50
2018-09-23T05:03:01.671Z,18.50
2018-09-23T05:05:32.047Z,18.50
2018-09-23T05:08:02.468Z,18.50
2018-09-23T05:10:32.881Z,18.50
2018-09-23T05:13:03.269Z,18.50
2018-09-23T05:15:33.646Z,18.60
2018-09-23T05:18:04.064Z,18.50
2018-09-23T05:20:34.443Z,18.60
2018-09-23T05:23:04.825Z,18.60
2018-09-23T05:25:35.225Z,18.60
2018-09-23T05:28:11.755Z,18.60
2018-09-23T05:30:42.357Z,18.60
2018-09-23T05:33:12.746Z,18.60
2018-09-23T05:36:04.329Z,18.60
2018-09-23T05:38:35.472Z,18.60
2018-09-23T05:41:06.631Z,18.60
2018-09-23T05:43:37.042Z,18.60
2018-09-23T05:46:08.457Z,18.60
2018-09-23T05:48:38.840Z,18.60
2018-09-23T05:51:09.193Z,18.60
2018-09-23T05:54:01.665Z,18.60
2018-09-23T05:56:32.085Z,18.60
2018-09-23T05:59:02.475Z,18.60
2018-09-23T06:01:32.865Z,18.60
2018-09-23T06:04:03.284Z,18.60
2018-09-23T06:06:33.684Z,18.60
2018-09-23T06:09:04.263Z,18.50
2018-09-23T06:11:34.725Z,18.50
2018-09-23T06:14:11.255Z,18.50
2018-09-23T06:16:42.425Z,18.60
2018-09-23T06:19:12.835Z,18.60
2018-09-23T06:21:46.810Z,18.60
2018-09-23T06:24:17.229Z,18.60
2018-09-23T06:26:47.609Z,18.60
2018-09-23T06:29:18.006Z,18.60
2018-09-23T06:31:48.437Z,18.60
2018-09-23T06:34:18.839Z,18.60
2018-09-23T06:36:49.216Z,18.60
2018-09-23T06:39:19.648Z,18.60
2018-09-23T06:41:50.035Z,18.60
2018-09-23T06:44:21.200Z,18.70
2018-09-23T06:46:53.407Z,18.70
2018-09-23T06:49:23.740Z,18.70
2018-09-23T06:52:00.281Z,18.70
2018-09-23T06:54:31.380Z,18.80
2018-09-23T06:57:01.772Z,18.70
2018-09-23T06:59:32.920Z,18.70
2018-09-23T07:02:10.605Z,18.70
2018-09-23T07:04:42.064Z,18.70
2018-09-23T07:07:12.437Z,18.80
2018-09-23T07:09:43.598Z,18.80
2018-09-23T07:12:14.018Z,18.80
2018-09-23T07:14:45.187Z,18.80
2018-09-23T07:17:15.568Z,18.80
2018-09-23T07:19:45.990Z,18.80
2018-09-23T07:22:16.370Z,18.80
2018-09-23T07:24:46.775Z,18.80
2018-09-23T07:27:18.130Z,18.90
2018-09-23T07:29:48.542Z,18.90
2018-09-23T07:32:18.915Z,18.90
2018-09-23T07:34:49.321Z,18.90
2018-09-23T07:37:19.704Z,18.90
2018-09-23T07:39:50.125Z,18.90
2018-09-23T07:42:20.492Z,18.90
2018-09-23T07:44:51.601Z,18.90
2018-09-23T07:47:22.050Z,18.90
2018-09-23T07:49:52.388Z,18.90
2018-09-23T07:52:22.774Z,18.90
2018-09-23T07:54:53.160Z,18.90
2018-09-23T08:00:10.830Z,18.90
2018-09-23T08:02:47.392Z,19.00
2018-09-23T08:05:19.745Z,19.00
2018-09-23T08:07:50.137Z,19.00
2018-09-23T08:10:21.502Z,19.00
2018-09-23T08:12:52.809Z,19.00
2018-09-23T08:15:22.982Z,19.00
2018-09-23T08:17:53.402Z,19.00
2018-09-23T08:20:24.787Z,19.00
2018-09-23T08:22:54.949Z,19.00
2018-09-23T08:25:26.372Z,19.10
2018-09-23T08:27:58.785Z,19.10
2018-09-23T08:30:29.179Z,19.10
2018-09-23T08:32:59.699Z,19.10
2018-09-23T08:35:30.985Z,19.10
2018-09-23T08:38:01.290Z,19.10
2018-09-23T08:40:31.694Z,19.10
2018-09-23T08:43:04.158Z,19.10
2018-09-23T08:45:34.655Z,19.10
2018-09-23T08:48:05.236Z,19.10
2018-09-23T08:50:35.524Z,19.20
2018-09-23T08:53:05.917Z,19.20
2018-09-23T08:55:36.355Z,19.20
2018-09-23T08:58:06.760Z,19.20
2018-09-23T09:00:37.189Z,19.20
2018-09-23T09:03:07.631Z,19.20
2018-09-23T09:05:37.959Z,19.30
2018-09-23T09:08:09.161Z,19.30
2018-09-23T09:10:39.581Z,19.30
2018-09-23T09:13:12.024Z,19.40
2018-09-23T09:15:42.438Z,19.50
2018-09-23T09:18:12.886Z,19.50
2018-09-23T09:20:43.251Z,19.50
2018-09-23T09:23:33.030Z,19.60
2018-09-23T09:26:04.448Z,19.60
2018-09-23T09:28:34.850Z,19.50
2018-09-23T09:31:06.045Z,19.60
2018-09-23T09:33:55.534Z,19.60
2018-09-23T09:36:25.959Z,19.50
2018-09-23T09:38:56.444Z,19.50
2018-09-23T09:41:26.992Z,19.50
2018-09-23T09:43:58.036Z,19.50
2018-09-23T09:46:28.438Z,19.50
2018-09-23T09:48:58.767Z,19.50
2018-09-23T09:51:29.180Z,19.50
2018-09-23T09:54:00.366Z,19.60
2018-09-23T09:56:30.755Z,19.60
2018-09-23T09:59:01.152Z,19.60
2018-09-23T10:01:32.628Z,19.50
2018-09-23T10:04:03.815Z,19.50
2018-09-23T10:06:34.950Z,19.50
2018-09-23T10:09:05.327Z,19.50
2018-09-23T10:11:35.764Z,19.50
2018-09-23T10:14:09.191Z,19.50
2018-09-23T10:16:39.584Z,19.60
2018-09-23T10:19:09.901Z,19.50
2018-09-23T10:21:40.247Z,19.50
2018-09-23T10:24:10.637Z,19.50
2018-09-23T10:26:41.052Z,19.50
2018-09-23T10:29:11.438Z,19.60
2018-09-23T10:31:41.890Z,19.50
2018-09-23T10:34:12.222Z,19.50
2018-09-23T10:36:44.682Z,19.60
2018-09-23T10:39:15.076Z,19.60
2018-09-23T10:41:46.210Z,19.60
2018-09-23T10:44:16.621Z,19.60
2018-09-23T10:46:47.016Z,19.60
2018-09-23T10:49:17.405Z,19.60
2018-09-23T10:51:48.571Z,19.80
2018-09-23T10:54:18.973Z,19.80
2018-09-23T10:56:51.082Z,19.80
2018-09-23T10:59:24.637Z,19.80
2018-09-23T11:01:54.953Z,19.70
2018-09-23T11:04:25.357Z,19.70
2018-09-23T11:07:17.211Z,19.70
2018-09-23T11:09:47.648Z,19.80
2018-09-23T11:12:17.968Z,19.90
2018-09-23T11:14:48.388Z,19.90
2018-09-23T11:17:18.790Z,20.00
2018-09-23T11:19:51.902Z,20.10
2018-09-23T11:22:22.321Z,20.10
2018-09-23T11:24:52.883Z,20.10
2018-09-23T11:27:23.151Z,20.10
2018-09-23T11:29:53.559Z,20.20
2018-09-23T11:32:24.139Z,20.10
2018-09-23T11:34:54.456Z,20.00
2018-09-23T11:37:24.874Z,20.00
2018-09-23T11:39:57.319Z,20.00
2018-09-23T11:42:27.633Z,19.90
2018-09-23T11:44:58.047Z,19.90
2018-09-23T11:47:28.425Z,19.80
2018-09-23T11:49:58.820Z,19.80
2018-09-23T11:52:29.245Z,19.80
2018-09-23T11:54:59.671Z,19.90
2018-09-23T11:57:30.048Z,20.00
2018-09-23T12:00:00.456Z,20.00
2018-09-23T12:02:33.489Z,20.00
2018-09-23T12:05:03.872Z,20.00
2018-09-23T12:07:37.350Z,20.00
2018-09-23T12:12:57.009Z,19.80
2018-09-23T12:15:28.183Z,19.70
2018-09-23T12:17:59.329Z,19.70
2018-09-23T12:20:29.868Z,19.70
2018-09-23T12:23:00.185Z,19.70
2018-09-23T12:25:33.364Z,19.60
2018-09-23T12:28:04.675Z,19.60
2018-09-23T12:30:35.303Z,19.60
2018-09-23T12:33:12.859Z,19.60
2018-09-23T12:35:43.182Z,19.70
2018-09-23T12:38:18.563Z,19.70
2018-09-23T12:40:54.666Z,19.70
2018-09-23T12:43:25.077Z,19.70
2018-09-23T12:45:55.525Z,19.70
2018-09-23T12:48:26.832Z,19.70
2018-09-23T12:50:57.248Z,19.70
2018-09-23T12:53:27.631Z,19.70
2018-09-23T12:56:02.749Z,19.70
2018-09-23T12:58:33.159Z,19.70
2018-09-23T13:01:03.491Z,19.70
2018-09-23T13:03:35.327Z,19.60
2018-09-23T13:06:08.234Z,19.60
2018-09-23T13:08:38.634Z,19.60
2018-09-23T13:11:09.067Z,19.60
2018-09-23T13:13:39.464Z,19.60
2018-09-23T13:16:11.909Z,19.50
2018-09-23T13:18:43.205Z,19.40
2018-09-23T13:21:13.510Z,19.40
2018-09-23T13:26:39.427Z,19.20
2018-09-23T13:29:09.822Z,19.10
2018-09-23T13:31:40.193Z,18.50
2018-09-23T13:34:10.622Z,18.00
2018-09-23T13:36:41.958Z,17.70
2018-09-23T13:39:12.339Z,17.60
2018-09-23T13:41:42.748Z,17.60
2018-09-23T13:44:13.137Z,17.60
2018-09-23T13:46:52.401Z,17.40
2018-09-23T13:49:28.854Z,17.40
2018-09-23T13:51:59.280Z,17.40
2018-09-23T13:54:29.689Z,17.50
2018-09-23T13:57:03.521Z,17.30
2018-09-23T13:59:33.928Z,17.30
2018-09-23T14:02:04.329Z,17.30
2018-09-23T14:04:37.112Z,17.20
2018-09-23T14:07:07.526Z,17.10
2018-09-23T14:09:37.918Z,17.20
2018-09-23T14:12:09.034Z,16.90
2018-09-23T14:14:39.407Z,16.90
2018-09-23T14:17:12.619Z,16.90
2018-09-23T14:19:43.105Z,16.80
2018-09-23T14:22:13.527Z,16.80
2018-09-23T14:24:43.853Z,16.70
2018-09-23T14:27:16.649Z,16.60
2018-09-23T14:29:53.210Z,16.50
2018-09-23T14:32:23.610Z,16.60
2018-09-23T14:34:54.010Z,16.50
2018-09-23T14:37:27.272Z,16.60
2018-09-23T14:39:58.682Z,16.80
2018-09-23T14:42:29.768Z,16.60
2018-09-23T14:45:00.853Z,16.40
2018-09-23T14:47:33.820Z,16.40
2018-09-23T14:50:04.200Z,16.20
2018-09-23T14:52:34.637Z,16.10
2018-09-23T14:55:05.154Z,16.10
2018-09-23T14:57:35.417Z,16.00
2018-09-23T15:00:05.857Z,16.20
2018-09-23T15:02:44.185Z,16.10
2018-09-23T15:05:19.814Z,15.90
2018-09-23T15:07:50.198Z,16.00
2018-09-23T15:10:20.582Z,16.00
2018-09-23T15:12:51.009Z,16.00
2018-09-23T15:15:21.402Z,16.20
2018-09-23T15:18:02.224Z,15.90
2018-09-23T15:20:33.378Z,16.10
2018-09-23T15:23:03.776Z,16.10
2018-09-23T15:25:34.204Z,16.20
2018-09-23T15:28:07.181Z,15.90
2018-09-23T15:30:37.500Z,15.70
2018-09-23T15:33:10.383Z,15.80
2018-09-23T15:35:40.758Z,15.80
2018-09-23T15:38:11.155Z,15.90
2018-09-23T15:40:41.562Z,15.90
2018-09-23T15:43:11.955Z,15.70
2018-09-23T15:45:42.338Z,15.60
2018-09-23T15:48:12.686Z,15.50
2018-09-23T15:50:43.846Z,15.40
2018-09-23T15:53:14.234Z,15.40
2018-09-23T15:55:44.661Z,15.50
2018-09-23T15:58:15.049Z,15.40
2018-09-23T16:01:06.873Z,15.30
2018-09-23T16:03:41.352Z,15.00
2018-09-23T16:06:14.939Z,15.00
2018-09-23T16:08:45.322Z,15.00
2018-09-23T16:11:22.888Z,15.00
2018-09-23T16:13:53.283Z,14.90
2018-09-23T16:16:26.316Z,14.80
2018-09-23T16:18:56.853Z,14.80
2018-09-23T16:21:27.949Z,14.60
2018-09-23T16:24:04.199Z,14.60
2018-09-23T16:26:34.505Z,14.50
2018-09-23T16:31:54.276Z,14.30
2018-09-23T16:34:24.562Z,14.20
2018-09-23T16:36:54.943Z,14.10
2018-09-23T16:39:30.577Z,14.20
2018-09-23T16:42:01.673Z,14.30
2018-09-23T16:44:33.083Z,14.30
2018-09-23T16:47:05.527Z,14.20
2018-09-23T16:49:35.929Z,14.00
2018-09-23T16:52:06.302Z,14.10
2018-09-23T16:54:36.750Z,14.10
2018-09-23T16:57:07.790Z,14.20
2018-09-23T16:59:40.161Z,14.10
2018-09-23T17:02:14.686Z,14.00
2018-09-23T17:05:07.185Z,14.00
2018-09-23T17:07:38.376Z,14.10
2018-09-23T17:10:27.120Z,14.10
2018-09-23T17:12:59.526Z,13.80
2018-09-23T17:15:29.922Z,14.00
2018-09-23T17:18:00.271Z,14.00
2018-09-23T17:20:32.708Z,14.00
2018-09-23T17:23:03.102Z,14.00
2018-09-23T17:25:33.476Z,13.80
2018-09-23T17:28:03.925Z,14.00
2018-09-23T17:30:34.294Z,13.90
2018-09-23T17:33:05.383Z,14.00
2018-09-23T17:35:35.850Z,14.00
2018-09-23T17:38:06.251Z,13.80
2018-09-23T17:40:39.089Z,13.80
2018-09-23T17:43:07.065Z,13.80
2018-09-23T17:45:37.457Z,14.00
2018-09-23T17:48:07.855Z,13.90
2018-09-23T17:50:38.218Z,13.80
2018-09-23T17:53:09.363Z,13.90
2018-09-23T17:55:40.553Z,14.00
2018-09-23T17:58:10.873Z,14.00
2018-09-23T18:00:41.263Z,13.80
2018-09-23T18:03:12.417Z,13.70
2018-09-23T18:05:43.594Z,13.80
2018-09-23T18:08:21.152Z,13.80
2018-09-23T18:10:52.330Z,13.40
2018-09-23T18:13:24.759Z,13.40
2018-09-23T18:15:55.921Z,13.50
2018-09-23T18:18:27.114Z,13.50
2018-09-23T18:21:18.924Z,13.50
2018-09-23T18:23:55.436Z,13.40
2018-09-23T18:26:25.825Z,13.50
2018-09-23T18:29:03.665Z,13.20
2018-09-23T18:31:35.013Z,13.20
2018-09-23T18:34:05.396Z,13.20
2018-09-23T18:36:35.828Z,13.20
2018-09-23T18:39:13.536Z,13.30
2018-09-23T18:42:03.325Z,13.30
2018-09-23T18:44:54.049Z,13.30
2018-09-23T18:47:24.510Z,13.40
2018-09-23T18:49:54.942Z,13.40
2018-09-23T18:52:27.301Z,13.20
2018-09-23T18:55:03.200Z,13.30
2018-09-23T18:57:35.651Z,13.30
2018-09-23T19:00:06.047Z,13.30
2018-09-23T19:02:37.246Z,13.30
2018-09-23T19:05:13.795Z,13.30
2018-09-23T19:07:44.191Z,13.30
2018-09-23T19:10:15.558Z,13.20
2018-09-23T19:12:46.709Z,13.20
2018-09-23T19:15:17.058Z,13.20
2018-09-23T19:17:50.507Z,13.30
2018-09-23T19:20:21.670Z,13.00
2018-09-23T19:22:52.801Z,12.90
2018-09-23T19:25:23.196Z,12.90
2018-09-23T19:27:53.600Z,13.00
2018-09-23T19:30:24.039Z,12.90
2018-09-23T19:32:54.436Z,13.00
2018-09-23T19:35:25.841Z,12.90
2018-09-23T19:37:56.268Z,12.70
2018-09-23T19:40:27.314Z,12.70
2018-09-23T19:42:57.758Z,12.80
2018-09-23T19:45:30.157Z,12.70
2018-09-23T19:48:00.536Z,12.70
2018-09-23T19:50:30.966Z,12.50
2018-09-23T19:53:01.398Z,12.80
2018-09-23T19:55:31.796Z,12.60
2018-09-23T19:58:22.599Z,12.60
2018-09-23T20:00:52.925Z,12.60
2018-09-23T20:03:43.668Z,12.60
2018-09-23T20:06:14.064Z,12.90
2018-09-23T20:08:44.443Z,12.60
2018-09-23T20:11:14.861Z,12.80
2018-09-23T20:13:46.008Z,12.70
2018-09-23T20:16:17.172Z,12.50
2018-09-23T20:18:47.590Z,12.50
2018-09-23T20:21:18.742Z,12.60
2018-09-23T20:23:49.162Z,12.60
2018-09-23T20:26:19.585Z,12.70
2018-09-23T20:28:49.973Z,12.70
2018-09-23T20:31:20.354Z,12.50
2018-09-23T20:33:50.767Z,12.60
2018-09-23T20:36:21.914Z,12.80
2018-09-23T20:38:52.304Z,12.80
2018-09-23T20:44:10.128Z,12.70
2018-09-23T20:46:59.921Z,12.60
2018-09-23T20:49:30.344Z,12.70
2018-09-23T20:52:00.738Z,12.60
2018-09-23T20:54:31.162Z,12.50
2018-09-23T20:57:01.543Z,12.60
2018-09-23T20:59:31.919Z,12.50
2018-09-23T21:02:02.339Z,12.60
2018-09-23T21:04:32.726Z,12.50
2018-09-23T21:07:03.042Z,12.50
2018-09-23T21:09:33.472Z,12.40
2018-09-23T21:12:03.877Z,12.40
2018-09-23T21:14:56.478Z,12.60
2018-09-23T21:17:26.874Z,12.60
2018-09-23T21:19:57.276Z,12.50
2018-09-23T21:22:27.712Z,12.40
2018-09-23T21:24:58.040Z,12.40
2018-09-23T21:27:49.896Z,12.40
2018-09-23T21:30:20.292Z,12.60
2018-09-23T21:33:10.015Z,12.50
2018-09-23T21:35:41.241Z,12.50
2018-09-23T21:38:15.079Z,12.30
2018-09-23T21:40:45.479Z,12.30
2018-09-23T21:43:15.882Z,12.50
2018-09-23T21:45:46.283Z,12.50
2018-09-23T21:48:16.698Z,12.60
2018-09-23T21:50:47.093Z,12.50
2018-09-23T21:53:18.249Z,12.40
2018-09-23T21:55:49.429Z,12.30
2018-09-23T21:58:22.873Z,12.30
2018-09-23T22:00:54.021Z,12.10
2018-09-23T22:03:24.481Z,12.00
2018-09-23T22:05:54.837Z,12.00
2018-09-23T22:08:32.406Z,12.00
2018-09-23T22:11:02.805Z,11.70
2018-09-23T22:13:33.959Z,11.60
2018-09-23T22:16:04.362Z,11.60
2018-09-23T22:18:34.754Z,11.60
2018-09-23T22:21:05.077Z,11.50
2018-09-23T22:23:42.804Z,11.60
2018-09-23T22:26:13.189Z,11.80
2018-09-23T22:28:43.570Z,11.70
2018-09-23T22:31:13.998Z,11.80
2018-09-23T22:33:44.324Z,11.60
2018-09-23T22:36:14.649Z,11.70
2018-09-23T22:38:45.060Z,11.60
2018-09-23T22:41:15.461Z,11.70
2018-09-23T22:43:54.071Z,11.60
2018-09-23T22:46:26.503Z,11.50
2018-09-23T22:48:57.668Z,11.40
2018-09-23T22:51:28.075Z,11.40
2018-09-23T22:53:58.462Z,11.40
2018-09-23T22:56:29.890Z,11.40
2018-09-23T22:59:00.304Z,11.10
2018-09-23T23:01:31.326Z,11.30
2018-09-23T23:04:01.708Z,11.20
2018-09-23T23:06:53.551Z,11.30
2018-09-23T23:09:23.944Z,11.20
2018-09-23T23:11:54.515Z,11.00
2018-09-23T23:14:24.941Z,11.10
2018-09-23T23:16:55.337Z,11.00
2018-09-23T23:19:25.731Z,10.90
2018-09-23T23:21:56.914Z,11.20
2018-09-23T23:24:47.638Z,11.20
2018-09-23T23:27:17.989Z,11.30
2018-09-23T23:29:48.380Z,11.20
2018-09-23T23:32:18.782Z,10.90
2018-09-23T23:34:49.208Z,10.80
2018-09-23T23:37:19.524Z,10.90
2018-09-23T23:39:49.916Z,11.00
2018-09-23T23:42:20.336Z,11.00
2018-09-23T23:44:50.740Z,11.00
2018-09-23T23:47:21.383Z,10.90
2018-09-23T23:49:52.514Z,11.00
2018-09-23T23:52:23.929Z,11.00
2018-09-23T23:54:54.256Z,11.00
2018-09-23T23:57:24.675Z,10.90
2018-09-23T23:59:55.183Z,11.00
